ADDS METAR Data INFO
IDs: Format: Raw Decoded Include TAF

Data at: 0146 UTC 18 Oct 2017

KPOY 180135Z AUTO 23007KT 10SM CLR 14/M12 A2991 RMK AO2
KPOY 180115Z AUTO 25006KT 10SM CLR 15/M11 A2992 RMK AO2
KPOY 180055Z AUTO 19004KT 10SM CLR 15/M11 A2992 RMK AO2
KPOY 180035Z AUTO 24009KT 10SM CLR 16/M10 A2991 RMK AO2
KPOY 180015Z AUTO 21009KT 10SM CLR 16/M08 A2990 RMK AO2
KPOY 172355Z AUTO 15006KT 10SM CLR 18/M07 A2992 RMK AO2
KPOY 172335Z AUTO 14006KT 10SM CLR 18/M07 A2992 RMK AO2
KPOY 172315Z AUTO 14008KT 10SM CLR 18/M08 A2992 RMK AO2
KPOY 172255Z AUTO 13009KT 10SM CLR 18/M08 A2993 RMK AO2
KPOY 172235Z AUTO 14013KT 10SM CLR 17/M08 A2994 RMK AO2
KPOY 172215Z AUTO 13012KT 10SM CLR 17/M07 A2995 RMK AO2
KPOY 172155Z AUTO 13012KT 10SM CLR 16/M07 A2996 RMK AO2
KPOY 172135Z AUTO 14011KT 10SM CLR 17/M08 A2996 RMK AO2
KPOY 172115Z AUTO 14011KT 10SM CLR 17/M08 A2997 RMK AO2
KPOY 172055Z AUTO 15012KT 10SM CLR 17/M08 A2998 RMK AO2
KPOY 172035Z AUTO 15012KT 10SM CLR 17/M08 A2998 RMK AO2
KPOY 172015Z AUTO 15012G17KT 10SM CLR 17/M08 A2999 RMK AO2
KPOY 171955Z AUTO 15014G20KT 10SM CLR 20/M07 A3000 RMK AO2
KPOY 171935Z AUTO 15014G18KT 10SM CLR 20/M07 A3001 RMK AO2
KPOY 171915Z AUTO 13013G20KT 10SM CLR 19/M08 A3001 RMK AO2
KPOY 171855Z AUTO 12012KT 10SM CLR 18/M06 A3004 RMK AO2
KPOY 171835Z AUTO 15014G19KT 10SM CLR 17/M07 A3005 RMK AO2
KPOY 171815Z AUTO 14012G16KT 10SM CLR 16/M06 A3006 RMK AO2
KPOY 171755Z AUTO 13013KT 10SM CLR 15/M06 A3007 RMK AO2
KPOY 171735Z AUTO 13010KT 10SM CLR 15/M07 A3008 RMK AO2
KPOY 171715Z AUTO 15006KT 10SM CLR 14/M07 A3009 RMK AO2
KPOY 171655Z AUTO 13009KT 10SM CLR 13/M07 A3010 RMK AO2
KPOY 171635Z AUTO 13009KT 10SM CLR 12/M07 A3010 RMK AO2
KPOY 171615Z AUTO 14008KT 10SM CLR 12/M08 A3011 RMK AO2
KPOY 171555Z AUTO 15009KT 10SM CLR 12/M08 A3011 RMK AO2
KPOY 171535Z AUTO 15008KT 10SM CLR 12/M09 A3012 RMK AO2
KPOY 171515Z AUTO 13009KT 10SM CLR 11/M09 A3011 RMK AO2
KPOY 171455Z AUTO 14009KT 10SM CLR 10/M09 A3012 RMK AO2
KPOY 171435Z AUTO 13008KT 10SM CLR 10/M10 A3012 RMK AO2
KPOY 171415Z AUTO 16008KT 10SM CLR 09/M10 A3011 RMK AO2
KPOY 171355Z AUTO 18013KT 10SM CLR 11/M11 A3011 RMK AO2
KPOY 171335Z AUTO 17010KT 10SM CLR 08/M10 A3011 RMK AO2
KPOY 171315Z AUTO 22016G25KT 10SM CLR 11/M11 A3011 RMK AO2
KPOY 171255Z AUTO 23017G21KT 10SM CLR 11/M11 A3012 RMK AO2
KPOY 171235Z AUTO 18009G14KT 10SM CLR 10/M11 A3012 RMK AO2
KPOY 171215Z AUTO 18006KT 10SM CLR 09/M11 A3012 RMK AO2
KPOY 171155Z AUTO 20009G14KT 10SM CLR 10/M11 A3013 RMK AO2
KPOY 171135Z AUTO 19010KT 10SM CLR 09/M11 A3013 RMK AO2
KPOY 171115Z AUTO 18008G15KT 10SM CLR 10/M11 A3014 RMK AO2
KPOY 171055Z AUTO 24017G24KT 10SM CLR 12/M12 A3013 RMK AO2
KPOY 171035Z AUTO 20009G15KT 10SM CLR 11/M12 A3013 RMK AO2
KPOY 171015Z AUTO 23015G21KT 10SM CLR 11/M12 A3012 RMK AO2
KPOY 170955Z AUTO 19010G14KT 10SM CLR 10/M11 A3014 RMK AO2
KPOY 170935Z AUTO 20005KT 10SM CLR 10/M11 A3014 RMK AO2
KPOY 170915Z AUTO 13004KT 10SM CLR 10/M11 A3015 RMK AO2
KPOY 170855Z AUTO 14005KT 10SM CLR 10/M11 A3015 RMK AO2
KPOY 170835Z AUTO 15006KT 10SM CLR 09/M11 A3014 RMK AO2
KPOY 170815Z AUTO 19007G14KT 10SM CLR 11/M12 A3015 RMK AO2
KPOY 170755Z AUTO 22011G15KT 10SM CLR 11/M12 A3015 RMK AO2
KPOY 170735Z AUTO 25018G21KT 10SM CLR 12/M12 A3015 RMK AO2
KPOY 170715Z AUTO 25015G23KT 10SM CLR 12/M12 A3015 RMK AO2
KPOY 170655Z AUTO 26021G25KT 10SM CLR 12/M12 A3015 RMK AO2
KPOY 170635Z AUTO 26021G27KT 10SM CLR 12/M12 A3015 RMK AO2
KPOY 170615Z AUTO 25019G26KT 10SM CLR 12/M12 A3015 RMK AO2
KPOY 170555Z AUTO 25017G20KT 10SM CLR 12/M12 A3016 RMK AO2
KPOY 170535Z AUTO 24015G23KT 10SM CLR 12/M12 A3016 RMK AO2
KPOY 170515Z AUTO 24015G20KT 10SM CLR 12/M13 A3016 RMK AO2
KPOY 170455Z AUTO 24015G20KT 10SM CLR 12/M13 A3016 RMK AO2
KPOY 170435Z AUTO 24012G17KT 10SM CLR 12/M13 A3016 RMK AO2
KPOY 170415Z AUTO 23011G17KT 10SM CLR 12/M13 A3017 RMK AO2
KPOY 170355Z AUTO 23009KT 10SM CLR 12/M11 A3017 RMK AO2
KPOY 170335Z AUTO 16005KT 10SM CLR 12/M10 A3018 RMK AO2
KPOY 170315Z AUTO 13004KT 10SM CLR 11/M07 A3018 RMK AO2
KPOY 170255Z AUTO 20007KT 10SM CLR 12/M08 A3017 RMK AO2
KPOY 170235Z AUTO 18004KT 10SM CLR 12/M09 A3018 RMK AO2
KPOY 170215Z AUTO 16007KT 10SM CLR 10/M07 A3018 RMK AO2
KPOY 170155Z AUTO 13008KT 10SM CLR 10/M07 A3018 RMK AO2
KPOY 170135Z AUTO 11007KT 10SM CLR 11/M07 A3018 RMK AO2
KPOY 170115Z AUTO 13004KT 10SM CLR 12/M07 A3018 RMK AO2
KPOY 170055Z AUTO 10007KT 10SM CLR 13/M07 A3017 RMK AO2
KPOY 170035Z AUTO 11006KT 10SM CLR 13/M06 A3016 RMK AO2
KPOY 170015Z AUTO 15007KT 10SM CLR 14/M06 A3016 RMK AO2
KPOY 162355Z AUTO 14009KT 10SM CLR 15/M06 A3017 RMK AO2
KPOY 162335Z AUTO 13007KT 10SM CLR 16/M06 A3017 RMK AO2
KPOY 162315Z AUTO 13007KT 10SM CLR 17/M07 A3017 RMK AO2
KPOY 162255Z AUTO 12007KT 10SM CLR 17/M07 A3018 RMK AO2
KPOY 162235Z AUTO 14008KT 10SM CLR 17/M07 A3018 RMK AO2
KPOY 162215Z AUTO 17006KT 10SM CLR 18/M07 A3018 RMK AO2
KPOY 162155Z AUTO 12006KT 10SM CLR 18/M07 A3018 RMK AO2
KPOY 162135Z AUTO 12006KT 10SM CLR 18/M07 A3018 RMK AO2
KPOY 162115Z AUTO 13007G14KT 10SM CLR 17/M07 A3018 RMK AO2
KPOY 162055Z AUTO 12008KT 10SM CLR 17/M07 A3019 RMK AO2
KPOY 162035Z AUTO 11008KT 10SM CLR 18/M06 A3019 RMK AO2
KPOY 162015Z AUTO 11009KT 10SM CLR 17/M06 A3019 RMK AO2
KPOY 161955Z AUTO 13007KT 10SM CLR 17/M06 A3019 RMK AO2
KPOY 161935Z AUTO 12008KT 10SM CLR 17/M05 A3020 RMK AO2
KPOY 161915Z AUTO 13009KT 10SM CLR 16/M05 A3021 RMK AO2
KPOY 161855Z AUTO 12011KT 10SM CLR 16/M05 A3022 RMK AO2
KPOY 161835Z AUTO 13010KT 10SM CLR 15/M05 A3022 RMK AO2
KPOY 161815Z AUTO 12011G17KT 10SM CLR 14/M05 A3022 RMK AO2
KPOY 161755Z AUTO 14010KT 10SM CLR 13/M04 A3022 RMK AO2
KPOY 161735Z AUTO 13011KT 10SM CLR 13/M04 A3022 RMK AO2
KPOY 161715Z AUTO 13006KT 10SM CLR 12/M06 A3023 RMK AO2
KPOY 161655Z AUTO 13009KT 10SM CLR 12/M05 A3023 RMK AO2
KPOY 161635Z AUTO 15009KT 10SM CLR 11/M06 A3023 RMK AO2
KPOY 161615Z AUTO 13006KT 10SM CLR 11/M06 A3022 RMK AO2
KPOY 161555Z AUTO 11008KT 10SM CLR 09/M05 A3022 RMK AO2
KPOY 161535Z AUTO 15008G15KT 10SM CLR 08/M06 A3022 RMK AO2
KPOY 161515Z AUTO 14009KT 10SM CLR 08/M06 A3022 RMK AO2
KPOY 161455Z AUTO 14007KT 10SM CLR 09/M07 A3020 RMK AO2
KPOY 161435Z AUTO 11009G17KT 10SM CLR 09/M08 A3020 RMK AO2
KPOY 161415Z AUTO 12005KT 10SM CLR 07/M07 A3020 RMK AO2
KPOY 161355Z AUTO 15008KT 134V194 10SM CLR 08/M08 A3019 RMK AO2